sensor_id;sensor_type;location;lat;lon;timestamp;P1;durP1;ratioP1;P2;durP2;ratioP2
44145;SDS011;29809;52.432;4.780;2024-01-25T00:00:00;13.50;;;4.30;;
44145;SDS011;29809;52.432;4.780;2024-01-25T00:02:25;15.85;;;4.93;;
44145;SDS011;29809;52.432;4.780;2024-01-25T00:04:51;14.98;;;4.40;;
44145;SDS011;29809;52.432;4.780;2024-01-25T00:07:16;12.55;;;4.45;;
44145;SDS011;29809;52.432;4.780;2024-01-25T00:09:42;10.93;;;4.03;;
44145;SDS011;29809;52.432;4.780;2024-01-25T00:12:07;14.07;;;4.72;;
44145;SDS011;29809;52.432;4.780;2024-01-25T00:14:32;12.35;;;4.22;;
44145;SDS011;29809;52.432;4.780;2024-01-25T00:16:58;11.60;;;5.00;;
44145;SDS011;29809;52.432;4.780;2024-01-25T00:19:23;10.98;;;3.95;;
44145;SDS011;29809;52.432;4.780;2024-01-25T00:21:48;12.90;;;3.97;;
44145;SDS011;29809;52.432;4.780;2024-01-25T00:24:13;12.27;;;4.40;;
44145;SDS011;29809;52.432;4.780;2024-01-25T00:26:39;15.90;;;5.22;;
44145;SDS011;29809;52.432;4.780;2024-01-25T00:29:04;13.48;;;4.03;;
44145;SDS011;29809;52.432;4.780;2024-01-25T00:31:29;14.40;;;4.72;;
44145;SDS011;29809;52.432;4.780;2024-01-25T00:33:55;10.65;;;4.10;;
44145;SDS011;29809;52.432;4.780;2024-01-25T00:36:20;10.90;;;4.20;;
44145;SDS011;29809;52.432;4.780;2024-01-25T00:38:46;11.35;;;4.32;;
44145;SDS011;29809;52.432;4.780;2024-01-25T00:41:11;12.07;;;4.65;;
44145;SDS011;29809;52.432;4.780;2024-01-25T00:43:40;11.55;;;4.28;;
44145;SDS011;29809;52.432;4.780;2024-01-25T00:46:06;11.65;;;4.28;;
44145;SDS011;29809;52.432;4.780;2024-01-25T00:48:31;13.18;;;4.47;;
44145;SDS011;29809;52.432;4.780;2024-01-25T00:50:56;12.52;;;4.55;;
44145;SDS011;29809;52.432;4.780;2024-01-25T00:53:22;12.38;;;4.25;;
44145;SDS011;29809;52.432;4.780;2024-01-25T00:55:47;12.00;;;4.57;;
44145;SDS011;29809;52.432;4.780;2024-01-25T00:58:13;14.65;;;4.10;;
44145;SDS011;29809;52.432;4.780;2024-01-25T01:00:38;12.32;;;4.07;;
44145;SDS011;29809;52.432;4.780;2024-01-25T01:03:04;9.75;;;4.07;;
44145;SDS011;29809;52.432;4.780;2024-01-25T01:05:30;14.85;;;4.68;;
44145;SDS011;29809;52.432;4.780;2024-01-25T01:07:56;15.20;;;5.60;;
44145;SDS011;29809;52.432;4.780;2024-01-25T01:10:21;11.27;;;3.97;;
44145;SDS011;29809;52.432;4.780;2024-01-25T01:12:46;9.88;;;3.72;;
44145;SDS011;29809;52.432;4.780;2024-01-25T01:15:12;10.88;;;4.35;;
44145;SDS011;29809;52.432;4.780;2024-01-25T01:17:37;12.65;;;4.15;;
44145;SDS011;29809;52.432;4.780;2024-01-25T01:20:02;11.82;;;4.60;;
44145;SDS011;29809;52.432;4.780;2024-01-25T01:22:28;10.20;;;3.83;;
44145;SDS011;29809;52.432;4.780;2024-01-25T01:24:53;15.73;;;5.03;;
44145;SDS011;29809;52.432;4.780;2024-01-25T01:27:18;14.38;;;4.30;;
44145;SDS011;29809;52.432;4.780;2024-01-25T01:29:45;11.38;;;4.72;;
44145;SDS011;29809;52.432;4.780;2024-01-25T01:32:11;10.18;;;3.65;;
44145;SDS011;29809;52.432;4.780;2024-01-25T01:34:36;10.75;;;4.18;;
44145;SDS011;29809;52.432;4.780;2024-01-25T01:37:01;8.90;;;3.58;;
44145;SDS011;29809;52.432;4.780;2024-01-25T01:39:26;8.90;;;4.25;;
44145;SDS011;29809;52.432;4.780;2024-01-25T01:41:52;10.00;;;4.10;;
44145;SDS011;29809;52.432;4.780;2024-01-25T01:44:17;11.40;;;4.03;;
44145;SDS011;29809;52.432;4.780;2024-01-25T01:46:42;7.50;;;3.30;;
44145;SDS011;29809;52.432;4.780;2024-01-25T01:49:08;12.82;;;4.32;;
44145;SDS011;29809;52.432;4.780;2024-01-25T01:51:36;15.32;;;4.82;;
44145;SDS011;29809;52.432;4.780;2024-01-25T01:54:01;11.68;;;4.68;;
44145;SDS011;29809;52.432;4.780;2024-01-25T01:56:28;10.30;;;4.00;;
44145;SDS011;29809;52.432;4.780;2024-01-25T01:59:05;10.75;;;4.10;;
44145;SDS011;29809;52.432;4.780;2024-01-25T02:01:33;14.05;;;4.45;;
44145;SDS011;29809;52.432;4.780;2024-01-25T02:03:58;10.48;;;4.05;;
44145;SDS011;29809;52.432;4.780;2024-01-25T02:06:24;8.13;;;3.80;;
44145;SDS011;29809;52.432;4.780;2024-01-25T02:08:49;9.00;;;3.75;;
44145;SDS011;29809;52.432;4.780;2024-01-25T02:11:24;7.95;;;3.40;;
44145;SDS011;29809;52.432;4.780;2024-01-25T02:13:49;9.30;;;3.90;;
44145;SDS011;29809;52.432;4.780;2024-01-25T02:16:14;10.43;;;4.43;;
44145;SDS011;29809;52.432;4.780;2024-01-25T02:18:40;8.88;;;3.65;;
44145;SDS011;29809;52.432;4.780;2024-01-25T02:21:06;10.15;;;3.92;;
44145;SDS011;29809;52.432;4.780;2024-01-25T02:23:31;9.55;;;4.75;;
44145;SDS011;29809;52.432;4.780;2024-01-25T02:25:56;12.40;;;4.35;;
44145;SDS011;29809;52.432;4.780;2024-01-25T02:28:21;10.27;;;3.50;;
44145;SDS011;29809;52.432;4.780;2024-01-25T02:30:46;11.50;;;3.53;;
44145;SDS011;29809;52.432;4.780;2024-01-25T02:33:12;13.25;;;4.07;;
44145;SDS011;29809;52.432;4.780;2024-01-25T02:35:37;11.38;;;4.13;;
44145;SDS011;29809;52.432;4.780;2024-01-25T02:38:02;9.90;;;4.05;;
44145;SDS011;29809;52.432;4.780;2024-01-25T02:40:28;11.10;;;4.10;;
44145;SDS011;29809;52.432;4.780;2024-01-25T02:42:53;10.82;;;3.55;;
44145;SDS011;29809;52.432;4.780;2024-01-25T02:45:18;9.40;;;3.40;;
44145;SDS011;29809;52.432;4.780;2024-01-25T02:47:43;11.20;;;3.47;;
44145;SDS011;29809;52.432;4.780;2024-01-25T02:50:09;8.75;;;3.53;;
44145;SDS011;29809;52.432;4.780;2024-01-25T02:52:34;12.95;;;3.75;;
44145;SDS011;29809;52.432;4.780;2024-01-25T02:54:59;11.18;;;3.70;;
44145;SDS011;29809;52.432;4.780;2024-01-25T02:57:25;11.18;;;4.28;;
44145;SDS011;29809;52.432;4.780;2024-01-25T02:59:50;9.57;;;4.18;;
44145;SDS011;29809;52.432;4.780;2024-01-25T03:02:15;8.98;;;4.25;;
44145;SDS011;29809;52.432;4.780;2024-01-25T03:04:43;9.10;;;3.42;;
44145;SDS011;29809;52.432;4.780;2024-01-25T03:07:08;8.00;;;3.25;;
44145;SDS011;29809;52.432;4.780;2024-01-25T03:09:34;12.27;;;4.00;;
44145;SDS011;29809;52.432;4.780;2024-01-25T03:11:59;8.05;;;3.88;;
44145;SDS011;29809;52.432;4.780;2024-01-25T03:14:24;11.52;;;4.32;;
44145;SDS011;29809;52.432;4.780;2024-01-25T03:16:49;11.25;;;4.28;;
44145;SDS011;29809;52.432;4.780;2024-01-25T03:19:14;6.97;;;3.83;;
44145;SDS011;29809;52.432;4.780;2024-01-25T03:21:40;11.57;;;3.97;;
44145;SDS011;29809;52.432;4.780;2024-01-25T03:24:05;9.93;;;3.85;;
44145;SDS011;29809;52.432;4.780;2024-01-25T03:26:30;8.77;;;3.50;;
44145;SDS011;29809;52.432;4.780;2024-01-25T03:28:55;11.27;;;3.75;;
44145;SDS011;29809;52.432;4.780;2024-01-25T03:31:21;8.05;;;3.47;;
44145;SDS011;29809;52.432;4.780;2024-01-25T03:33:46;7.60;;;3.60;;
44145;SDS011;29809;52.432;4.780;2024-01-25T03:36:13;9.52;;;3.53;;
44145;SDS011;29809;52.432;4.780;2024-01-25T03:38:38;5.57;;;2.83;;
44145;SDS011;29809;52.432;4.780;2024-01-25T03:41:04;9.38;;;3.70;;
44145;SDS011;29809;52.432;4.780;2024-01-25T03:43:29;7.88;;;3.95;;
44145;SDS011;29809;52.432;4.780;2024-01-25T03:45:54;6.93;;;3.20;;
44145;SDS011;29809;52.432;4.780;2024-01-25T03:48:19;7.78;;;3.58;;
44145;SDS011;29809;52.432;4.780;2024-01-25T03:50:45;9.82;;;4.15;;
44145;SDS011;29809;52.432;4.780;2024-01-25T03:53:10;8.88;;;3.58;;
44145;SDS011;29809;52.432;4.780;2024-01-25T03:55:35;8.10;;;3.92;;
44145;SDS011;29809;52.432;4.780;2024-01-25T03:58:00;8.55;;;3.50;;
44145;SDS011;29809;52.432;4.780;2024-01-25T04:00:26;6.75;;;3.03;;
44145;SDS011;29809;52.432;4.780;2024-01-25T04:02:51;8.32;;;3.58;;
44145;SDS011;29809;52.432;4.780;2024-01-25T04:05:16;8.88;;;3.35;;
44145;SDS011;29809;52.432;4.780;2024-01-25T04:07:42;7.00;;;3.17;;
44145;SDS011;29809;52.432;4.780;2024-01-25T04:10:07;5.60;;;2.97;;
44145;SDS011;29809;52.432;4.780;2024-01-25T04:12:32;8.63;;;3.50;;
44145;SDS011;29809;52.432;4.780;2024-01-25T04:14:58;11.23;;;3.88;;
44145;SDS011;29809;52.432;4.780;2024-01-25T04:17:23;5.28;;;2.85;;
44145;SDS011;29809;52.432;4.780;2024-01-25T04:19:49;8.23;;;3.60;;
44145;SDS011;29809;52.432;4.780;2024-01-25T04:22:14;6.68;;;2.97;;
44145;SDS011;29809;52.432;4.780;2024-01-25T04:24:39;8.13;;;3.38;;
44145;SDS011;29809;52.432;4.780;2024-01-25T04:27:04;9.25;;;3.83;;
44145;SDS011;29809;52.432;4.780;2024-01-25T04:29:30;7.00;;;3.20;;
44145;SDS011;29809;52.432;4.780;2024-01-25T04:31:55;7.43;;;3.10;;
44145;SDS011;29809;52.432;4.780;2024-01-25T04:34:20;6.95;;;3.47;;
44145;SDS011;29809;52.432;4.780;2024-01-25T04:36:46;5.80;;;2.80;;
44145;SDS011;29809;52.432;4.780;2024-01-25T04:39:11;7.72;;;2.67;;
44145;SDS011;29809;52.432;4.780;2024-01-25T04:41:36;9.18;;;3.03;;
44145;SDS011;29809;52.432;4.780;2024-01-25T04:44:02;6.55;;;3.35;;
44145;SDS011;29809;52.432;4.780;2024-01-25T04:46:27;7.57;;;3.10;;
44145;SDS011;29809;52.432;4.780;2024-01-25T04:48:53;8.30;;;3.13;;
44145;SDS011;29809;52.432;4.780;2024-01-25T04:51:19;5.97;;;2.75;;
44145;SDS011;29809;52.432;4.780;2024-01-25T04:53:48;5.75;;;2.72;;
44145;SDS011;29809;52.432;4.780;2024-01-25T04:56:13;6.43;;;3.30;;
44145;SDS011;29809;52.432;4.780;2024-01-25T04:58:38;7.57;;;3.20;;
44145;SDS011;29809;52.432;4.780;2024-01-25T05:01:03;8.43;;;3.20;;
44145;SDS011;29809;52.432;4.780;2024-01-25T05:03:29;5.22;;;2.70;;
44145;SDS011;29809;52.432;4.780;2024-01-25T05:05:54;8.45;;;3.15;;
44145;SDS011;29809;52.432;4.780;2024-01-25T05:08:19;8.13;;;3.17;;
44145;SDS011;29809;52.432;4.780;2024-01-25T05:10:44;6.30;;;2.72;;
44145;SDS011;29809;52.432;4.780;2024-01-25T05:13:10;9.65;;;3.30;;
44145;SDS011;29809;52.432;4.780;2024-01-25T05:15:35;7.38;;;3.15;;
44145;SDS011;29809;52.432;4.780;2024-01-25T05:18:01;8.07;;;3.50;;
44145;SDS011;29809;52.432;4.780;2024-01-25T05:20:26;9.02;;;3.03;;
44145;SDS011;29809;52.432;4.780;2024-01-25T05:22:58;7.10;;;2.92;;
44145;SDS011;29809;52.432;4.780;2024-01-25T05:25:23;8.13;;;3.65;;
44145;SDS011;29809;52.432;4.780;2024-01-25T05:27:48;9.98;;;2.88;;
44145;SDS011;29809;52.432;4.780;2024-01-25T05:30:13;7.35;;;2.70;;
44145;SDS011;29809;52.432;4.780;2024-01-25T05:32:39;6.60;;;3.30;;
44145;SDS011;29809;52.432;4.780;2024-01-25T05:35:04;7.13;;;2.83;;
44145;SDS011;29809;52.432;4.780;2024-01-25T05:37:29;8.07;;;3.10;;
44145;SDS011;29809;52.432;4.780;2024-01-25T05:39:55;7.97;;;3.15;;
44145;SDS011;29809;52.432;4.780;2024-01-25T05:42:20;6.75;;;2.83;;
44145;SDS011;29809;52.432;4.780;2024-01-25T05:44:45;7.70;;;3.08;;
44145;SDS011;29809;52.432;4.780;2024-01-25T05:47:11;8.48;;;3.05;;
44145;SDS011;29809;52.432;4.780;2024-01-25T05:49:36;10.18;;;3.28;;
44145;SDS011;29809;52.432;4.780;2024-01-25T05:52:01;8.05;;;3.30;;
44145;SDS011;29809;52.432;4.780;2024-01-25T05:54:26;8.75;;;3.17;;
44145;SDS011;29809;52.432;4.780;2024-01-25T05:56:52;7.95;;;3.70;;
44145;SDS011;29809;52.432;4.780;2024-01-25T05:59:17;7.25;;;3.15;;
44145;SDS011;29809;52.432;4.780;2024-01-25T06:01:42;7.75;;;3.63;;
44145;SDS011;29809;52.432;4.780;2024-01-25T06:04:07;11.18;;;3.28;;
44145;SDS011;29809;52.432;4.780;2024-01-25T06:06:33;9.52;;;3.20;;
44145;SDS011;29809;52.432;4.780;2024-01-25T06:08:58;10.20;;;3.13;;
44145;SDS011;29809;52.432;4.780;2024-01-25T06:11:23;7.60;;;2.95;;
44145;SDS011;29809;52.432;4.780;2024-01-25T06:13:48;8.63;;;2.83;;
44145;SDS011;29809;52.432;4.780;2024-01-25T06:16:13;7.63;;;3.50;;
44145;SDS011;29809;52.432;4.780;2024-01-25T06:18:39;74.97;;;21.38;;
44145;SDS011;29809;52.432;4.780;2024-01-25T06:21:04;72.13;;;24.67;;
44145;SDS011;29809;52.432;4.780;2024-01-25T06:23:29;61.10;;;21.73;;
44145;SDS011;29809;52.432;4.780;2024-01-25T06:25:54;56.78;;;20.10;;
44145;SDS011;29809;52.432;4.780;2024-01-25T06:28:20;47.85;;;16.90;;
44145;SDS011;29809;52.432;4.780;2024-01-25T06:30:45;47.78;;;17.02;;
44145;SDS011;29809;52.432;4.780;2024-01-25T06:33:10;44.05;;;15.80;;
44145;SDS011;29809;52.432;4.780;2024-01-25T06:35:35;40.45;;;15.32;;
44145;SDS011;29809;52.432;4.780;2024-01-25T06:38:01;36.00;;;14.00;;
44145;SDS011;29809;52.432;4.780;2024-01-25T06:40:26;33.75;;;13.00;;
44145;SDS011;29809;52.432;4.780;2024-01-25T06:42:51;31.80;;;12.40;;
44145;SDS011;29809;52.432;4.780;2024-01-25T06:45:16;33.45;;;12.30;;
44145;SDS011;29809;52.432;4.780;2024-01-25T06:47:42;22.70;;;9.05;;
44145;SDS011;29809;52.432;4.780;2024-01-25T06:50:07;18.70;;;9.30;;
44145;SDS011;29809;52.432;4.780;2024-01-25T06:52:33;23.70;;;10.23;;
44145;SDS011;29809;52.432;4.780;2024-01-25T06:54:58;24.83;;;10.25;;
44145;SDS011;29809;52.432;4.780;2024-01-25T06:57:23;25.88;;;9.80;;
44145;SDS011;29809;52.432;4.780;2024-01-25T06:59:49;26.58;;;9.20;;
44145;SDS011;29809;52.432;4.780;2024-01-25T07:02:14;24.65;;;8.05;;
44145;SDS011;29809;52.432;4.780;2024-01-25T07:04:39;21.00;;;8.55;;
44145;SDS011;29809;52.432;4.780;2024-01-25T07:07:05;18.58;;;8.57;;
44145;SDS011;29809;52.432;4.780;2024-01-25T07:09:31;20.60;;;8.70;;
44145;SDS011;29809;52.432;4.780;2024-01-25T07:11:56;21.15;;;7.57;;
44145;SDS011;29809;52.432;4.780;2024-01-25T07:14:21;18.65;;;7.53;;
44145;SDS011;29809;52.432;4.780;2024-01-25T07:16:47;16.60;;;6.65;;
44145;SDS011;29809;52.432;4.780;2024-01-25T07:19:13;14.93;;;6.85;;
44145;SDS011;29809;52.432;4.780;2024-01-25T07:21:39;15.73;;;7.57;;
44145;SDS011;29809;52.432;4.780;2024-01-25T07:24:05;13.10;;;6.68;;
44145;SDS011;29809;52.432;4.780;2024-01-25T07:26:30;12.88;;;6.03;;
44145;SDS011;29809;52.432;4.780;2024-01-25T07:28:56;15.75;;;5.60;;
44145;SDS011;29809;52.432;4.780;2024-01-25T07:31:26;10.38;;;5.72;;
44145;SDS011;29809;52.432;4.780;2024-01-25T07:33:52;14.35;;;5.80;;
44145;SDS011;29809;52.432;4.780;2024-01-25T07:36:17;15.50;;;6.13;;
44145;SDS011;29809;52.432;4.780;2024-01-25T07:38:43;15.07;;;6.45;;
44145;SDS011;29809;52.432;4.780;2024-01-25T07:41:08;11.35;;;5.05;;
44145;SDS011;29809;52.432;4.780;2024-01-25T07:43:33;11.23;;;5.05;;
44145;SDS011;29809;52.432;4.780;2024-01-25T07:45:59;13.93;;;5.35;;
44145;SDS011;29809;52.432;4.780;2024-01-25T07:48:24;12.43;;;5.47;;
44145;SDS011;29809;52.432;4.780;2024-01-25T07:50:49;12.40;;;4.93;;
44145;SDS011;29809;52.432;4.780;2024-01-25T07:53:14;13.63;;;5.47;;
44145;SDS011;29809;52.432;4.780;2024-01-25T07:55:41;10.60;;;4.78;;
44145;SDS011;29809;52.432;4.780;2024-01-25T07:58:06;9.80;;;4.60;;
44145;SDS011;29809;52.432;4.780;2024-01-25T08:00:31;12.63;;;5.32;;
44145;SDS011;29809;52.432;4.780;2024-01-25T08:02:57;10.15;;;4.80;;
44145;SDS011;29809;52.432;4.780;2024-01-25T08:05:22;12.63;;;4.95;;
44145;SDS011;29809;52.432;4.780;2024-01-25T08:07:47;8.32;;;4.40;;
44145;SDS011;29809;52.432;4.780;2024-01-25T08:10:13;12.43;;;5.45;;
44145;SDS011;29809;52.432;4.780;2024-01-25T08:12:39;10.02;;;4.38;;
44145;SDS011;29809;52.432;4.780;2024-01-25T08:15:05;10.65;;;4.60;;
44145;SDS011;29809;52.432;4.780;2024-01-25T08:17:31;11.02;;;4.25;;
44145;SDS011;29809;52.432;4.780;2024-01-25T08:19:56;10.85;;;4.38;;
44145;SDS011;29809;52.432;4.780;2024-01-25T08:22:21;8.73;;;4.30;;
44145;SDS011;29809;52.432;4.780;2024-01-25T08:24:48;9.90;;;4.40;;
44145;SDS011;29809;52.432;4.780;2024-01-25T08:27:13;9.13;;;3.92;;
44145;SDS011;29809;52.432;4.780;2024-01-25T08:29:39;10.02;;;5.10;;
44145;SDS011;29809;52.432;4.780;2024-01-25T08:32:04;8.88;;;4.05;;
44145;SDS011;29809;52.432;4.780;2024-01-25T08:34:30;10.65;;;4.78;;
44145;SDS011;29809;52.432;4.780;2024-01-25T08:36:55;11.45;;;5.03;;
44145;SDS011;29809;52.432;4.780;2024-01-25T08:39:20;8.23;;;3.90;;
44145;SDS011;29809;52.432;4.780;2024-01-25T08:41:45;10.27;;;4.72;;
44145;SDS011;29809;52.432;4.780;2024-01-25T08:44:14;10.13;;;4.32;;
44145;SDS011;29809;52.432;4.780;2024-01-25T08:46:39;8.75;;;4.18;;
44145;SDS011;29809;52.432;4.780;2024-01-25T08:49:04;11.68;;;4.72;;
44145;SDS011;29809;52.432;4.780;2024-01-25T08:51:33;7.68;;;3.72;;
44145;SDS011;29809;52.432;4.780;2024-01-25T08:53:58;8.82;;;4.38;;
44145;SDS011;29809;52.432;4.780;2024-01-25T08:56:24;17.70;;;5.25;;
44145;SDS011;29809;52.432;4.780;2024-01-25T08:58:49;15.43;;;4.68;;
44145;SDS011;29809;52.432;4.780;2024-01-25T09:01:15;10.32;;;4.60;;
44145;SDS011;29809;52.432;4.780;2024-01-25T09:03:40;9.40;;;5.05;;
44145;SDS011;29809;52.432;4.780;2024-01-25T09:06:06;16.42;;;5.40;;
44145;SDS011;29809;52.432;4.780;2024-01-25T09:08:31;9.30;;;4.43;;
44145;SDS011;29809;52.432;4.780;2024-01-25T09:10:57;10.40;;;4.32;;
44145;SDS011;29809;52.432;4.780;2024-01-25T09:13:22;12.15;;;4.80;;
44145;SDS011;29809;52.432;4.780;2024-01-25T09:15:47;11.68;;;4.22;;
44145;SDS011;29809;52.432;4.780;2024-01-25T09:18:12;13.43;;;5.13;;
44145;SDS011;29809;52.432;4.780;2024-01-25T09:20:38;15.98;;;5.20;;
44145;SDS011;29809;52.432;4.780;2024-01-25T09:23:03;10.43;;;4.20;;
44145;SDS011;29809;52.432;4.780;2024-01-25T09:25:29;12.27;;;4.78;;
44145;SDS011;29809;52.432;4.780;2024-01-25T09:27:54;10.02;;;4.68;;
44145;SDS011;29809;52.432;4.780;2024-01-25T09:30:21;11.10;;;4.25;;
44145;SDS011;29809;52.432;4.780;2024-01-25T09:32:47;9.90;;;4.93;;
44145;SDS011;29809;52.432;4.780;2024-01-25T09:35:13;13.48;;;5.07;;
44145;SDS011;29809;52.432;4.780;2024-01-25T09:37:38;9.93;;;4.50;;
44145;SDS011;29809;52.432;4.780;2024-01-25T09:40:03;9.98;;;4.25;;
44145;SDS011;29809;52.432;4.780;2024-01-25T09:42:29;9.70;;;3.80;;
44145;SDS011;29809;52.432;4.780;2024-01-25T09:44:54;11.10;;;4.13;;
44145;SDS011;29809;52.432;4.780;2024-01-25T09:47:19;11.70;;;4.75;;
44145;SDS011;29809;52.432;4.780;2024-01-25T09:49:46;11.15;;;4.63;;
44145;SDS011;29809;52.432;4.780;2024-01-25T09:52:14;10.52;;;4.60;;
44145;SDS011;29809;52.432;4.780;2024-01-25T09:54:40;11.18;;;4.53;;
44145;SDS011;29809;52.432;4.780;2024-01-25T09:57:13;11.77;;;4.97;;
44145;SDS011;29809;52.432;4.780;2024-01-25T09:59:39;10.35;;;4.40;;
44145;SDS011;29809;52.432;4.780;2024-01-25T10:02:04;8.65;;;4.35;;
44145;SDS011;29809;52.432;4.780;2024-01-25T10:04:30;10.55;;;4.22;;
44145;SDS011;29809;52.432;4.780;2024-01-25T10:06:55;12.70;;;3.92;;
44145;SDS011;29809;52.432;4.780;2024-01-25T10:09:21;9.88;;;3.53;;
44145;SDS011;29809;52.432;4.780;2024-01-25T10:11:47;11.18;;;4.70;;
44145;SDS011;29809;52.432;4.780;2024-01-25T10:14:13;9.40;;;3.90;;
44145;SDS011;29809;52.432;4.780;2024-01-25T10:16:38;8.40;;;4.00;;
44145;SDS011;29809;52.432;4.780;2024-01-25T10:19:05;7.88;;;3.70;;
44145;SDS011;29809;52.432;4.780;2024-01-25T10:21:31;10.90;;;3.85;;
44145;SDS011;29809;52.432;4.780;2024-01-25T10:23:56;10.15;;;3.83;;
44145;SDS011;29809;52.432;4.780;2024-01-25T10:26:25;11.32;;;3.58;;
44145;SDS011;29809;52.432;4.780;2024-01-25T10:28:54;9.57;;;3.80;;
44145;SDS011;29809;52.432;4.780;2024-01-25T10:31:22;9.48;;;4.10;;
44145;SDS011;29809;52.432;4.780;2024-01-25T10:33:48;8.95;;;4.18;;
44145;SDS011;29809;52.432;4.780;2024-01-25T10:36:13;8.55;;;3.88;;
44145;SDS011;29809;52.432;4.780;2024-01-25T10:38:38;10.73;;;4.00;;
44145;SDS011;29809;52.432;4.780;2024-01-25T10:41:04;11.38;;;4.28;;
44145;SDS011;29809;52.432;4.780;2024-01-25T10:43:30;9.25;;;3.88;;
44145;SDS011;29809;52.432;4.780;2024-01-25T10:45:55;11.60;;;4.38;;
44145;SDS011;29809;52.432;4.780;2024-01-25T10:48:23;7.80;;;4.20;;
44145;SDS011;29809;52.432;4.780;2024-01-25T10:50:48;9.43;;;3.78;;
44145;SDS011;29809;52.432;4.780;2024-01-25T10:53:14;8.75;;;3.55;;
44145;SDS011;29809;52.432;4.780;2024-01-25T10:55:40;8.02;;;3.40;;
44145;SDS011;29809;52.432;4.780;2024-01-25T10:58:06;9.23;;;3.90;;
44145;SDS011;29809;52.432;4.780;2024-01-25T11:00:33;7.70;;;3.10;;
44145;SDS011;29809;52.432;4.780;2024-01-25T11:02:58;8.73;;;3.60;;
44145;SDS011;29809;52.432;4.780;2024-01-25T11:05:25;10.20;;;4.32;;
44145;SDS011;29809;52.432;4.780;2024-01-25T11:07:51;8.27;;;3.60;;
44145;SDS011;29809;52.432;4.780;2024-01-25T11:10:20;8.93;;;3.95;;
44145;SDS011;29809;52.432;4.780;2024-01-25T11:12:48;7.10;;;3.47;;
44145;SDS011;29809;52.432;4.780;2024-01-25T11:15:19;6.20;;;3.35;;
44145;SDS011;29809;52.432;4.780;2024-01-25T11:17:50;9.55;;;4.15;;
44145;SDS011;29809;52.432;4.780;2024-01-25T11:20:15;5.72;;;3.53;;
44145;SDS011;29809;52.432;4.780;2024-01-25T11:22:44;9.25;;;4.15;;
44145;SDS011;29809;52.432;4.780;2024-01-25T11:25:13;8.20;;;3.85;;
44145;SDS011;29809;52.432;4.780;2024-01-25T11:27:42;9.48;;;3.80;;
44145;SDS011;29809;52.432;4.780;2024-01-25T11:30:07;6.85;;;3.40;;
44145;SDS011;29809;52.432;4.780;2024-01-25T11:32:33;6.13;;;3.67;;
44145;SDS011;29809;52.432;4.780;2024-01-25T11:34:59;7.73;;;3.43;;
44145;SDS011;29809;52.432;4.780;2024-01-25T11:37:24;8.38;;;3.47;;
44145;SDS011;29809;52.432;4.780;2024-01-25T11:39:49;7.93;;;4.10;;
44145;SDS011;29809;52.432;4.780;2024-01-25T11:42:14;9.73;;;3.63;;
44145;SDS011;29809;52.432;4.780;2024-01-25T11:44:39;7.88;;;3.72;;
44145;SDS011;29809;52.432;4.780;2024-01-25T11:47:05;8.18;;;4.15;;
44145;SDS011;29809;52.432;4.780;2024-01-25T11:49:31;8.95;;;3.97;;
44145;SDS011;29809;52.432;4.780;2024-01-25T11:51:57;7.75;;;3.28;;
44145;SDS011;29809;52.432;4.780;2024-01-25T11:54:23;7.93;;;4.07;;
44145;SDS011;29809;52.432;4.780;2024-01-25T11:56:49;6.05;;;3.47;;
44145;SDS011;29809;52.432;4.780;2024-01-25T11:59:14;8.23;;;3.53;;
44145;SDS011;29809;52.432;4.780;2024-01-25T12:01:40;8.55;;;3.60;;
44145;SDS011;29809;52.432;4.780;2024-01-25T12:04:05;10.00;;;3.80;;
44145;SDS011;29809;52.432;4.780;2024-01-25T12:06:32;8.93;;;3.85;;
44145;SDS011;29809;52.432;4.780;2024-01-25T12:09:08;8.73;;;4.03;;
44145;SDS011;29809;52.432;4.780;2024-01-25T12:11:33;8.18;;;3.63;;
44145;SDS011;29809;52.432;4.780;2024-01-25T12:14:00;10.60;;;3.97;;
44145;SDS011;29809;52.432;4.780;2024-01-25T12:16:25;10.40;;;4.57;;
44145;SDS011;29809;52.432;4.780;2024-01-25T12:18:50;10.93;;;4.28;;
44145;SDS011;29809;52.432;4.780;2024-01-25T12:21:15;11.10;;;4.85;;
44145;SDS011;29809;52.432;4.780;2024-01-25T12:23:41;11.70;;;4.68;;
44145;SDS011;29809;52.432;4.780;2024-01-25T12:26:08;12.18;;;4.80;;
44145;SDS011;29809;52.432;4.780;2024-01-25T12:28:34;10.85;;;4.78;;
44145;SDS011;29809;52.432;4.780;2024-01-25T12:31:00;11.95;;;4.53;;
44145;SDS011;29809;52.432;4.780;2024-01-25T12:33:26;13.57;;;4.82;;
44145;SDS011;29809;52.432;4.780;2024-01-25T12:35:51;11.30;;;4.07;;
44145;SDS011;29809;52.432;4.780;2024-01-25T12:38:18;12.02;;;4.40;;
44145;SDS011;29809;52.432;4.780;2024-01-25T12:40:45;12.27;;;4.30;;
44145;SDS011;29809;52.432;4.780;2024-01-25T12:43:11;9.35;;;4.32;;
44145;SDS011;29809;52.432;4.780;2024-01-25T12:45:36;9.13;;;4.13;;
44145;SDS011;29809;52.432;4.780;2024-01-25T12:48:01;10.88;;;4.38;;
44145;SDS011;29809;52.432;4.780;2024-01-25T12:50:27;12.32;;;3.97;;
44145;SDS011;29809;52.432;4.780;2024-01-25T12:52:53;10.63;;;4.10;;
44145;SDS011;29809;52.432;4.780;2024-01-25T12:55:18;12.48;;;4.60;;
44145;SDS011;29809;52.432;4.780;2024-01-25T12:57:43;10.23;;;4.40;;
44145;SDS011;29809;52.432;4.780;2024-01-25T13:00:08;12.00;;;4.32;;
44145;SDS011;29809;52.432;4.780;2024-01-25T13:02:34;8.80;;;4.15;;
44145;SDS011;29809;52.432;4.780;2024-01-25T13:04:59;10.95;;;4.50;;
44145;SDS011;29809;52.432;4.780;2024-01-25T13:07:25;10.95;;;4.30;;
44145;SDS011;29809;52.432;4.780;2024-01-25T13:09:50;11.88;;;4.30;;
44145;SDS011;29809;52.432;4.780;2024-01-25T13:12:15;10.30;;;3.80;;
44145;SDS011;29809;52.432;4.780;2024-01-25T13:14:40;9.40;;;4.45;;
44145;SDS011;29809;52.432;4.780;2024-01-25T13:17:05;14.30;;;4.55;;
44145;SDS011;29809;52.432;4.780;2024-01-25T13:19:33;9.32;;;3.80;;
44145;SDS011;29809;52.432;4.780;2024-01-25T13:21:58;10.50;;;3.95;;
44145;SDS011;29809;52.432;4.780;2024-01-25T13:24:23;9.05;;;4.15;;
44145;SDS011;29809;52.432;4.780;2024-01-25T13:26:48;11.63;;;3.90;;
44145;SDS011;29809;52.432;4.780;2024-01-25T13:29:14;11.57;;;4.22;;
44145;SDS011;29809;52.432;4.780;2024-01-25T13:31:39;9.38;;;4.20;;
44145;SDS011;29809;52.432;4.780;2024-01-25T13:34:05;13.02;;;4.45;;
44145;SDS011;29809;52.432;4.780;2024-01-25T13:36:30;10.52;;;4.13;;
44145;SDS011;29809;52.432;4.780;2024-01-25T13:38:55;9.73;;;3.83;;
44145;SDS011;29809;52.432;4.780;2024-01-25T13:41:20;10.85;;;3.88;;
44145;SDS011;29809;52.432;4.780;2024-01-25T13:43:46;10.43;;;4.45;;
44145;SDS011;29809;52.432;4.780;2024-01-25T13:46:11;11.43;;;4.95;;
44145;SDS011;29809;52.432;4.780;2024-01-25T13:48:36;9.75;;;4.28;;
44145;SDS011;29809;52.432;4.780;2024-01-25T13:51:01;11.00;;;4.20;;
44145;SDS011;29809;52.432;4.780;2024-01-25T13:53:26;8.63;;;4.07;;
44145;SDS011;29809;52.432;4.780;2024-01-25T13:55:52;12.40;;;5.20;;
44145;SDS011;29809;52.432;4.780;2024-01-25T13:58:17;9.25;;;4.55;;
44145;SDS011;29809;52.432;4.780;2024-01-25T14:00:42;14.32;;;5.32;;
44145;SDS011;29809;52.432;4.780;2024-01-25T14:03:07;11.25;;;4.68;;
44145;SDS011;29809;52.432;4.780;2024-01-25T14:05:33;14.05;;;4.47;;
44145;SDS011;29809;52.432;4.780;2024-01-25T14:07:58;9.95;;;4.53;;
44145;SDS011;29809;52.432;4.780;2024-01-25T14:10:24;8.15;;;3.75;;
44145;SDS011;29809;52.432;4.780;2024-01-25T14:12:49;9.20;;;4.05;;
44145;SDS011;29809;52.432;4.780;2024-01-25T14:15:16;10.10;;;4.30;;
44145;SDS011;29809;52.432;4.780;2024-01-25T14:17:41;11.50;;;4.30;;
44145;SDS011;29809;52.432;4.780;2024-01-25T14:20:06;9.20;;;3.45;;
44145;SDS011;29809;52.432;4.780;2024-01-25T14:22:33;10.63;;;4.35;;
44145;SDS011;29809;52.432;4.780;2024-01-25T14:24:58;9.60;;;3.95;;
44145;SDS011;29809;52.432;4.780;2024-01-25T14:27:24;9.10;;;4.03;;
44145;SDS011;29809;52.432;4.780;2024-01-25T14:29:49;7.60;;;3.58;;